Terminal Aerodrome Forecast
Issued by NWS

Home | Current Version | Previous Version | Text Only | Print | Product List | Glossary On
Versions: 1 2 3 4 5 6 7 8 9 10 11 12 13
588
FTUS45 KABQ 201120
TAFROW
TAF
KROW 201120Z 2012/2112 18009KT P6SM FEW025 SCT100
      TEMPO 2012/2014 BKN025
     FM201500 17009KT P6SM FEW100
     FM201900 18012G18KT P6SM SKC
     FM210000 19008KT P6SM SKC=

USA.gov is the U.S. government's official web portal to all federal, state and local government web resources and services.